Flight Track Log - Related Links

Times and Time Zones

All times are in EDT time to prevent confusion due to time zone crossing. See the ASH1014 flight status page for this flight to view local times or setup timezone preferences in your user account.

Time Position Orientation Groundspeed Altitude Reporting Facility
EDT Latitude Longitude Course Direction KTS MPH feet Rate Location/Type
Mon 10:47:54 PM 20.9000 -156.4167 343° North 160 184 1,000  Level Honolulu Center
Mon 10:48:55 PM 20.9500 -156.4333 317° Northwest 210 242 3,500 2,430 Climbing Honolulu Center
Mon 10:49:55 PM 21.0000 -156.4833 317° Northwest 240 276 5,900 2,380 Climbing Honolulu Center
Mon 10:50:56 PM 21.0500 -156.5333 270° West 280 322 8,300 2,380 Climbing Honolulu Center
Mon 10:51:56 PM 21.0500 -156.6167 260° West 290 334 10,700 2,400 Climbing Honolulu Center
Mon 10:52:56 PM 21.0333 -156.7167 270° West 300 345 13,100 1,785 Climbing Honolulu Center
Mon 10:53:57 PM 21.0333 -156.8000 261° West 330 380 14,300 1,041 Climbing Honolulu Center
Mon 10:54:57 PM 21.0167 -156.9167 260° West 370 426 15,200 850 Climbing Honolulu Center
Mon 10:55:57 PM 21.0000 -157.0167 257° West 400 460 16,000 397 Climbing Honolulu Center
Mon 10:56:58 PM 20.9667 -157.1667 261° West 420 483 16,000  Level Honolulu Center
Mon 10:57:58 PM 20.9500 -157.2833 261° West 430 495 16,000  Level Honolulu Center
Mon 10:58:58 PM 20.9333 -157.4000 270° West 410 472 16,000 -992 Level Honolulu Center
Mon 10:59:59 PM 20.9333 -157.5000 290° West 340 391 14,000 -2,281 Descending Honolulu Center
Mon 11:00:59 PM 20.9667 -157.6000 293° West 330 380 11,400 -2,350 Descending Honolulu Center
Mon 11:01:59 PM 21.0000 -157.6833 293° West 300 345 9,300 -2,050 Descending Honolulu Center
Mon 11:02:59 PM 21.0333 -157.7667 285° West 290 334 7,300 -2,000 Descending Honolulu Center
Mon 11:03:59 PM 21.0500 -157.8333 285° West 250 288 5,300 -1,736 Descending Honolulu Center
Mon 11:05:00 PM 21.0667 -157.9000 298° West 230 265 3,800 -1,190 Descending Honolulu Center
Mon 11:06:00 PM 21.1000 -157.9667 290° West 190 219 2,900 -992 Descending Honolulu Center
Mon 11:07:01 PM 21.1167 -158.0167 290° West 180 207 1,800 -1,082 Descending Honolulu Center

Login

Don't have an account? Register now (free) for customized features, flight alerts, and more!